Terminal Aerodrome Forecast
Issued by NWS

Home | Current Version | Previous Version | Text Only | Print | Product List | Glossary On
Versions: 1 2 3 4 5 6 7 8 9 10 11 12 13
000
FTUS45 KTFX 071735
TAFBZN
TAF
KBZN 071735Z 0718/0818 VRB05KT P6SM SCT080 BKN120
     FM072200 35008KT P6SM VCTS SCT080CB BKN120
      TEMPO 0722/0802 VRB20G30KT -TSRA BKN050CB
     FM080400 16005KT P6SM VCSH BKN100=

USA.gov is the U.S. government's official web portal to all federal, state and local government web resources and services.